sensor_id;sensor_type;location;lat;lon;timestamp;pressure;altitude;pressure_sealevel;temperature;humidity
26823;BME280;14852;51.910;8.878;2023-07-31T00:02:16;99198.00;;;19.65;60.85
26823;BME280;14852;51.910;8.878;2023-07-31T00:04:42;99198.84;;;19.65;60.95
26823;BME280;14852;51.910;8.878;2023-07-31T00:07:07;99194.69;;;19.63;60.87
26823;BME280;14852;51.910;8.878;2023-07-31T00:09:34;99183.78;;;19.58;61.29
26823;BME280;14852;51.910;8.878;2023-07-31T00:11:59;99189.34;;;19.55;61.26
26823;BME280;14852;51.910;8.878;2023-07-31T00:14:25;99184.09;;;19.55;61.01
26823;BME280;14852;51.910;8.878;2023-07-31T00:16:51;99179.63;;;19.55;61.19
26823;BME280;14852;51.910;8.878;2023-07-31T00:19:17;99173.53;;;19.55;61.20
26823;BME280;14852;51.910;8.878;2023-07-31T00:21:44;99173.00;;;19.51;61.67
26823;BME280;14852;51.910;8.878;2023-07-31T00:24:10;99166.38;;;19.47;61.43
26823;BME280;14852;51.910;8.878;2023-07-31T00:26:36;99155.97;;;19.45;61.74
26823;BME280;14852;51.910;8.878;2023-07-31T00:29:01;99150.84;;;19.44;61.75
26823;BME280;14852;51.910;8.878;2023-07-31T00:31:27;99151.84;;;19.43;61.72
26823;BME280;14852;51.910;8.878;2023-07-31T00:33:53;99144.75;;;19.43;62.14
26823;BME280;14852;51.910;8.878;2023-07-31T00:36:19;99147.38;;;19.43;61.88
26823;BME280;14852;51.910;8.878;2023-07-31T00:38:45;99154.47;;;19.43;61.81
26823;BME280;14852;51.910;8.878;2023-07-31T00:41:10;99150.16;;;19.42;62.13
26823;BME280;14852;51.910;8.878;2023-07-31T00:43:36;99159.75;;;19.43;62.20
26823;BME280;14852;51.910;8.878;2023-07-31T00:46:02;99149.50;;;19.40;62.16
26823;BME280;14852;51.910;8.878;2023-07-31T00:48:28;99138.44;;;19.36;62.73
26823;BME280;14852;51.910;8.878;2023-07-31T00:50:55;99144.69;;;19.35;62.51
26823;BME280;14852;51.910;8.878;2023-07-31T00:53:21;99133.19;;;19.36;62.42
26823;BME280;14852;51.910;8.878;2023-07-31T00:55:47;99126.25;;;19.35;62.89
26823;BME280;14852;51.910;8.878;2023-07-31T00:58:13;99129.56;;;19.37;62.54
26823;BME280;14852;51.910;8.878;2023-07-31T01:00:39;99124.59;;;19.34;62.61
26823;BME280;14852;51.910;8.878;2023-07-31T01:03:05;99120.00;;;19.36;62.98
26823;BME280;14852;51.910;8.878;2023-07-31T01:05:49;99121.50;;;19.39;62.63
26823;BME280;14852;51.910;8.878;2023-07-31T01:08:42;99121.34;;;19.40;62.69
26823;BME280;14852;51.910;8.878;2023-07-31T01:11:21;99115.56;;;19.37;62.91
26823;BME280;14852;51.910;8.878;2023-07-31T01:13:47;99107.13;;;19.33;62.88
26823;BME280;14852;51.910;8.878;2023-07-31T01:16:13;99113.38;;;19.32;62.96
26823;BME280;14852;51.910;8.878;2023-07-31T01:18:39;99115.19;;;19.32;63.55
26823;BME280;14852;51.910;8.878;2023-07-31T01:27:34;99107.06;;;19.25;63.20
26823;BME280;14852;51.910;8.878;2023-07-31T01:30:14;99118.44;;;19.26;63.22
26823;BME280;14852;51.910;8.878;2023-07-31T01:32:43;99114.44;;;19.22;63.23
26823;BME280;14852;51.910;8.878;2023-07-31T01:35:12;99109.47;;;19.18;63.21
26823;BME280;14852;51.910;8.878;2023-07-31T01:37:38;99116.03;;;19.14;63.70
26823;BME280;14852;51.910;8.878;2023-07-31T01:40:05;99117.00;;;19.13;63.41
26823;BME280;14852;51.910;8.878;2023-07-31T01:42:31;99114.50;;;19.12;63.10
26823;BME280;14852;51.910;8.878;2023-07-31T01:44:56;99111.19;;;19.10;63.14
26823;BME280;14852;51.910;8.878;2023-07-31T01:47:22;99107.06;;;19.07;63.47
26823;BME280;14852;51.910;8.878;2023-07-31T01:49:49;99112.31;;;19.07;63.43
26823;BME280;14852;51.910;8.878;2023-07-31T01:52:15;99112.47;;;19.06;62.95
26823;BME280;14852;51.910;8.878;2023-07-31T01:54:41;99109.47;;;19.01;63.18
26823;BME280;14852;51.910;8.878;2023-07-31T01:57:07;99108.09;;;18.97;63.24
26823;BME280;14852;51.910;8.878;2023-07-31T01:59:33;99110.88;;;18.95;62.97
26823;BME280;14852;51.910;8.878;2023-07-31T02:01:59;99105.75;;;18.94;63.27
26823;BME280;14852;51.910;8.878;2023-07-31T02:04:25;99104.28;;;18.91;63.17
26823;BME280;14852;51.910;8.878;2023-07-31T02:06:50;99107.06;;;18.90;63.08
26823;BME280;14852;51.910;8.878;2023-07-31T02:09:16;99107.06;;;18.90;63.25
26823;BME280;14852;51.910;8.878;2023-07-31T02:11:42;99102.06;;;18.87;63.14
26823;BME280;14852;51.910;8.878;2023-07-31T02:14:08;99098.63;;;18.86;63.16
26823;BME280;14852;51.910;8.878;2023-07-31T02:16:33;99098.75;;;18.85;63.13
26823;BME280;14852;51.910;8.878;2023-07-31T02:19:00;99097.94;;;18.84;62.88
26823;BME280;14852;51.910;8.878;2023-07-31T02:21:26;99094.31;;;18.85;62.63
26823;BME280;14852;51.910;8.878;2023-07-31T02:23:51;99095.97;;;18.86;62.70
26823;BME280;14852;51.910;8.878;2023-07-31T02:26:18;99095.69;;;18.89;62.95
26823;BME280;14852;51.910;8.878;2023-07-31T02:28:44;99088.31;;;18.93;62.99
26823;BME280;14852;51.910;8.878;2023-07-31T02:31:11;99092.31;;;18.97;63.00
26823;BME280;14852;51.910;8.878;2023-07-31T02:33:37;99090.22;;;19.00;62.98
26823;BME280;14852;51.910;8.878;2023-07-31T02:36:03;99089.09;;;19.03;62.58
26823;BME280;14852;51.910;8.878;2023-07-31T02:38:28;99079.88;;;19.07;62.47
26823;BME280;14852;51.910;8.878;2023-07-31T02:40:54;99081.41;;;19.09;62.50
26823;BME280;14852;51.910;8.878;2023-07-31T02:43:20;99080.88;;;19.06;62.81
26823;BME280;14852;51.910;8.878;2023-07-31T02:45:52;99078.22;;;19.06;62.42
26823;BME280;14852;51.910;8.878;2023-07-31T02:48:18;99074.91;;;19.04;62.62
26823;BME280;14852;51.910;8.878;2023-07-31T02:50:45;99078.38;;;19.04;62.72
26823;BME280;14852;51.910;8.878;2023-07-31T02:53:11;99077.03;;;19.00;62.58
26823;BME280;14852;51.910;8.878;2023-07-31T02:55:37;99075.69;;;18.96;62.99
26823;BME280;14852;51.910;8.878;2023-07-31T02:58:02;99083.72;;;18.95;62.95
26823;BME280;14852;51.910;8.878;2023-07-31T03:00:28;99077.47;;;18.96;63.04
26823;BME280;14852;51.910;8.878;2023-07-31T03:02:54;99080.13;;;18.96;62.96
26823;BME280;14852;51.910;8.878;2023-07-31T03:05:20;99082.22;;;18.92;63.15
26823;BME280;14852;51.910;8.878;2023-07-31T03:07:45;99074.78;;;18.88;62.94
26823;BME280;14852;51.910;8.878;2023-07-31T03:10:11;99078.81;;;18.82;63.14
26823;BME280;14852;51.910;8.878;2023-07-31T03:12:37;99077.00;;;18.83;63.21
26823;BME280;14852;51.910;8.878;2023-07-31T03:15:04;99081.44;;;18.82;63.22
26823;BME280;14852;51.910;8.878;2023-07-31T03:17:30;99077.00;;;18.83;63.67
26823;BME280;14852;51.910;8.878;2023-07-31T03:19:56;99077.16;;;18.81;63.80
26823;BME280;14852;51.910;8.878;2023-07-31T03:22:21;99076.50;;;18.79;63.75
26823;BME280;14852;51.910;8.878;2023-07-31T03:24:47;99079.00;;;18.80;64.10
26823;BME280;14852;51.910;8.878;2023-07-31T03:27:13;99081.44;;;18.82;64.07
26823;BME280;14852;51.910;8.878;2023-07-31T03:29:39;99072.72;;;18.81;63.70
26823;BME280;14852;51.910;8.878;2023-07-31T03:32:05;99085.75;;;18.83;64.02
26823;BME280;14852;51.910;8.878;2023-07-31T03:34:30;99070.09;;;18.81;64.31
26823;BME280;14852;51.910;8.878;2023-07-31T03:36:58;99076.38;;;18.80;64.77
26823;BME280;14852;51.910;8.878;2023-07-31T03:39:24;99073.56;;;18.82;64.71
26823;BME280;14852;51.910;8.878;2023-07-31T03:41:50;99068.97;;;18.84;64.57
26823;BME280;14852;51.910;8.878;2023-07-31T03:44:17;99057.47;;;18.85;64.91
26823;BME280;14852;51.910;8.878;2023-07-31T03:46:42;99065.06;;;18.88;64.43
26823;BME280;14852;51.910;8.878;2023-07-31T03:49:08;99064.78;;;18.91;64.85
26823;BME280;14852;51.910;8.878;2023-07-31T03:51:34;99066.41;;;18.92;64.84
26823;BME280;14852;51.910;8.878;2023-07-31T03:54:00;99059.19;;;18.94;64.95
26823;BME280;14852;51.910;8.878;2023-07-31T03:56:26;99061.53;;;18.97;64.88
26823;BME280;14852;51.910;8.878;2023-07-31T03:58:52;99064.84;;;18.99;64.88
26823;BME280;14852;51.910;8.878;2023-07-31T04:01:19;99051.84;;;18.98;65.32
26823;BME280;14852;51.910;8.878;2023-07-31T04:03:45;99063.06;;;19.00;65.59
26823;BME280;14852;51.910;8.878;2023-07-31T04:06:11;99060.56;;;18.98;65.35
26823;BME280;14852;51.910;8.878;2023-07-31T04:08:37;99070.13;;;18.99;65.13
26823;BME280;14852;51.910;8.878;2023-07-31T04:11:02;99068.31;;;19.00;65.60
26823;BME280;14852;51.910;8.878;2023-07-31T04:13:29;99059.28;;;19.02;65.40
26823;BME280;14852;51.910;8.878;2023-07-31T04:15:55;99069.66;;;19.04;65.14
26823;BME280;14852;51.910;8.878;2023-07-31T04:18:24;99066.03;;;19.05;65.25
26823;BME280;14852;51.910;8.878;2023-07-31T04:20:50;99070.34;;;19.06;65.50
26823;BME280;14852;51.910;8.878;2023-07-31T04:23:16;99067.69;;;19.06;65.56
26823;BME280;14852;51.910;8.878;2023-07-31T04:25:41;99076.06;;;19.01;65.65
26823;BME280;14852;51.910;8.878;2023-07-31T04:28:07;99062.06;;;19.01;65.61
26823;BME280;14852;51.910;8.878;2023-07-31T04:30:33;99067.19;;;19.02;65.91
26823;BME280;14852;51.910;8.878;2023-07-31T04:32:59;99062.56;;;19.04;65.77
26823;BME280;14852;51.910;8.878;2023-07-31T04:35:25;99054.25;;;19.09;65.76
26823;BME280;14852;51.910;8.878;2023-07-31T04:37:50;99065.06;;;19.06;65.76
26823;BME280;14852;51.910;8.878;2023-07-31T04:40:16;99057.63;;;19.01;66.14
26823;BME280;14852;51.910;8.878;2023-07-31T04:42:42;99055.44;;;18.97;66.04
26823;BME280;14852;51.910;8.878;2023-07-31T04:45:09;99065.28;;;18.95;65.92
26823;BME280;14852;51.910;8.878;2023-07-31T04:47:35;99066.41;;;18.92;65.80
26823;BME280;14852;51.910;8.878;2023-07-31T04:50:01;99053.09;;;18.94;66.38
26823;BME280;14852;51.910;8.878;2023-07-31T04:52:26;99056.88;;;18.91;66.10
26823;BME280;14852;51.910;8.878;2023-07-31T04:54:52;99064.09;;;18.89;66.19
26823;BME280;14852;51.910;8.878;2023-07-31T04:57:18;99059.53;;;18.91;66.24
26823;BME280;14852;51.910;8.878;2023-07-31T04:59:44;99061.00;;;18.94;66.04
26823;BME280;14852;51.910;8.878;2023-07-31T05:02:12;99072.59;;;19.01;66.18
26823;BME280;14852;51.910;8.878;2023-07-31T05:04:39;99064.03;;;18.99;65.91
26823;BME280;14852;51.910;8.878;2023-07-31T05:07:04;99072.47;;;19.02;65.91
26823;BME280;14852;51.910;8.878;2023-07-31T05:09:30;99068.53;;;19.06;66.01
26823;BME280;14852;51.910;8.878;2023-07-31T05:11:56;99069.91;;;19.10;66.03
26823;BME280;14852;51.910;8.878;2023-07-31T05:14:22;99060.72;;;19.14;65.57
26823;BME280;14852;51.910;8.878;2023-07-31T05:16:48;99067.31;;;19.18;65.87
26823;BME280;14852;51.910;8.878;2023-07-31T05:19:13;99064.53;;;19.20;65.77
26823;BME280;14852;51.910;8.878;2023-07-31T05:21:40;99069.66;;;19.22;65.85
26823;BME280;14852;51.910;8.878;2023-07-31T05:24:06;99066.88;;;19.23;65.97
26823;BME280;14852;51.910;8.878;2023-07-31T05:26:31;99066.19;;;19.21;65.87
26823;BME280;14852;51.910;8.878;2023-07-31T05:28:57;99054.00;;;19.20;65.51
26823;BME280;14852;51.910;8.878;2023-07-31T05:31:24;99059.28;;;19.20;65.77
26823;BME280;14852;51.910;8.878;2023-07-31T05:33:50;99054.97;;;19.19;65.37
26823;BME280;14852;51.910;8.878;2023-07-31T05:36:17;99062.75;;;19.21;65.55
26823;BME280;14852;51.910;8.878;2023-07-31T05:38:42;99054.69;;;19.22;65.44
26823;BME280;14852;51.910;8.878;2023-07-31T05:41:12;99060.16;;;19.29;65.44
26823;BME280;14852;51.910;8.878;2023-07-31T05:43:38;99050.84;;;19.34;65.72
26823;BME280;14852;51.910;8.878;2023-07-31T05:46:04;99060.75;;;19.40;65.30
26823;BME280;14852;51.910;8.878;2023-07-31T05:48:30;99050.75;;;19.44;65.36
26823;BME280;14852;51.910;8.878;2023-07-31T05:50:55;99057.81;;;19.43;65.11
26823;BME280;14852;51.910;8.878;2023-07-31T05:53:21;99055.72;;;19.47;64.94
26823;BME280;14852;51.910;8.878;2023-07-31T05:55:47;99057.50;;;19.46;64.86
26823;BME280;14852;51.910;8.878;2023-07-31T05:58:13;99052.41;;;19.45;65.09
26823;BME280;14852;51.910;8.878;2023-07-31T06:00:38;99053.78;;;19.49;65.34
26823;BME280;14852;51.910;8.878;2023-07-31T06:03:04;99043.75;;;19.52;65.23
26823;BME280;14852;51.910;8.878;2023-07-31T06:05:30;99057.75;;;19.53;65.16
26823;BME280;14852;51.910;8.878;2023-07-31T06:07:57;99052.19;;;19.56;65.26
26823;BME280;14852;51.910;8.878;2023-07-31T06:10:23;99056.47;;;19.57;65.18
26823;BME280;14852;51.910;8.878;2023-07-31T06:12:48;99059.63;;;19.61;64.91
26823;BME280;14852;51.910;8.878;2023-07-31T06:15:15;99055.00;;;19.63;65.01
26823;BME280;14852;51.910;8.878;2023-07-31T06:17:41;99046.28;;;19.62;64.87
26823;BME280;14852;51.910;8.878;2023-07-31T06:20:08;99041.69;;;19.64;64.81
26823;BME280;14852;51.910;8.878;2023-07-31T06:22:34;99042.50;;;19.65;64.96
26823;BME280;14852;51.910;8.878;2023-07-31T06:24:59;99048.59;;;19.65;64.91
26823;BME280;14852;51.910;8.878;2023-07-31T06:27:25;99053.72;;;19.67;65.04
26823;BME280;14852;51.910;8.878;2023-07-31T06:29:51;99046.34;;;19.70;65.05
26823;BME280;14852;51.910;8.878;2023-07-31T06:32:17;99043.56;;;19.72;64.89
26823;BME280;14852;51.910;8.878;2023-07-31T06:34:43;99034.03;;;19.79;64.66
26823;BME280;14852;51.910;8.878;2023-07-31T06:37:08;99031.78;;;19.84;64.41
26823;BME280;14852;51.910;8.878;2023-07-31T06:39:34;99030.44;;;19.88;64.22
26823;BME280;14852;51.910;8.878;2023-07-31T06:42:00;99033.75;;;19.90;64.18
26823;BME280;14852;51.910;8.878;2023-07-31T06:44:26;99033.13;;;19.96;64.38
26823;BME280;14852;51.910;8.878;2023-07-31T06:46:51;99031.00;;;20.00;64.62
26823;BME280;14852;51.910;8.878;2023-07-31T06:49:17;99032.50;;;20.02;64.64
26823;BME280;14852;51.910;8.878;2023-07-31T06:51:43;99031.03;;;20.08;64.69
26823;BME280;14852;51.910;8.878;2023-07-31T06:54:09;99030.56;;;20.12;64.29
26823;BME280;14852;51.910;8.878;2023-07-31T06:56:35;99031.91;;;20.16;64.36
26823;BME280;14852;51.910;8.878;2023-07-31T06:59:01;99028.94;;;20.19;64.12
26823;BME280;14852;51.910;8.878;2023-07-31T07:01:27;99032.75;;;20.17;64.09
26823;BME280;14852;51.910;8.878;2023-07-31T07:03:54;99005.19;;;20.19;64.28
26823;BME280;14852;51.910;8.878;2023-07-31T07:06:22;99015.09;;;20.17;64.56
26823;BME280;14852;51.910;8.878;2023-07-31T07:08:48;99006.22;;;20.18;64.51
26823;BME280;14852;51.910;8.878;2023-07-31T07:11:14;99003.72;;;20.17;64.53
26823;BME280;14852;51.910;8.878;2023-07-31T07:13:40;99007.19;;;20.17;64.61
26823;BME280;14852;51.910;8.878;2023-07-31T07:16:06;99015.28;;;20.24;64.25
26823;BME280;14852;51.910;8.878;2023-07-31T07:18:32;99013.00;;;20.29;64.36
26823;BME280;14852;51.910;8.878;2023-07-31T07:20:57;99014.03;;;20.36;64.43
26823;BME280;14852;51.910;8.878;2023-07-31T07:23:24;99019.97;;;20.38;64.20
26823;BME280;14852;51.910;8.878;2023-07-31T07:25:50;99021.13;;;20.36;64.07
26823;BME280;14852;51.910;8.878;2023-07-31T07:28:17;99021.41;;;20.33;64.68
26823;BME280;14852;51.910;8.878;2023-07-31T07:30:42;99022.22;;;20.33;64.65
26823;BME280;14852;51.910;8.878;2023-07-31T07:33:08;99024.28;;;20.39;64.39
26823;BME280;14852;51.910;8.878;2023-07-31T07:35:35;99019.69;;;20.41;64.47
26823;BME280;14852;51.910;8.878;2023-07-31T07:38:03;99023.63;;;20.45;64.66
26823;BME280;14852;51.910;8.878;2023-07-31T07:40:29;99017.53;;;20.45;64.87
26823;BME280;14852;51.910;8.878;2023-07-31T07:42:55;99025.94;;;20.48;64.65
26823;BME280;14852;51.910;8.878;2023-07-31T07:45:20;99023.97;;;20.50;64.33
26823;BME280;14852;51.910;8.878;2023-07-31T07:47:46;99025.66;;;20.59;64.27
26823;BME280;14852;51.910;8.878;2023-07-31T07:50:12;99032.25;;;20.64;64.25
26823;BME280;14852;51.910;8.878;2023-07-31T07:52:38;99034.22;;;20.62;64.68
26823;BME280;14852;51.910;8.878;2023-07-31T07:55:04;99040.19;;;20.64;64.57
26823;BME280;14852;51.910;8.878;2023-07-31T07:57:30;99034.91;;;20.64;64.71
26823;BME280;14852;51.910;8.878;2023-07-31T07:59:56;99033.72;;;20.66;64.94
26823;BME280;14852;51.910;8.878;2023-07-31T08:02:22;99026.31;;;20.70;64.70
26823;BME280;14852;51.910;8.878;2023-07-31T08:04:48;99014.94;;;20.69;64.26
26823;BME280;14852;51.910;8.878;2023-07-31T08:07:14;99016.59;;;20.62;64.44
26823;BME280;14852;51.910;8.878;2023-07-31T08:09:40;99017.06;;;20.57;64.94
26823;BME280;14852;51.910;8.878;2023-07-31T08:12:07;99013.59;;;20.57;64.84
26823;BME280;14852;51.910;8.878;2023-07-31T08:14:33;99005.00;;;20.55;65.07
26823;BME280;14852;51.910;8.878;2023-07-31T08:16:58;99000.06;;;20.52;65.15
26823;BME280;14852;51.910;8.878;2023-07-31T08:19:24;98979.13;;;20.50;65.13
26823;BME280;14852;51.910;8.878;2023-07-31T08:21:50;98975.81;;;20.48;65.09
26823;BME280;14852;51.910;8.878;2023-07-31T08:24:16;98968.38;;;20.44;65.08
26823;BME280;14852;51.910;8.878;2023-07-31T08:26:42;98961.63;;;20.41;65.38
26823;BME280;14852;51.910;8.878;2023-07-31T08:29:08;98969.69;;;20.40;65.11
26823;BME280;14852;51.910;8.878;2023-07-31T08:31:34;98961.78;;;20.40;65.26
26823;BME280;14852;51.910;8.878;2023-07-31T08:34:00;98973.16;;;20.48;65.28
26823;BME280;14852;51.910;8.878;2023-07-31T08:36:26;98961.81;;;20.64;65.21
26823;BME280;14852;51.910;8.878;2023-07-31T08:38:52;98953.06;;;20.72;64.87
26823;BME280;14852;51.910;8.878;2023-07-31T08:41:18;98960.19;;;20.87;64.69
26823;BME280;14852;51.910;8.878;2023-07-31T08:43:47;98955.88;;;21.03;64.35
26823;BME280;14852;51.910;8.878;2023-07-31T08:46:13;98957.34;;;21.13;64.48
26823;BME280;14852;51.910;8.878;2023-07-31T08:48:43;98960.00;;;21.29;64.48
26823;BME280;14852;51.910;8.878;2023-07-31T08:51:09;98967.91;;;21.46;64.17
26823;BME280;14852;51.910;8.878;2023-07-31T08:53:35;98957.84;;;21.41;64.30
26823;BME280;14852;51.910;8.878;2023-07-31T08:56:02;98948.41;;;21.39;64.29
26823;BME280;14852;51.910;8.878;2023-07-31T08:58:32;98958.66;;;21.42;64.37
26823;BME280;14852;51.910;8.878;2023-07-31T09:01:04;98948.59;;;21.45;64.23
26823;BME280;14852;51.910;8.878;2023-07-31T09:03:34;98943.44;;;21.52;64.32
26823;BME280;14852;51.910;8.878;2023-07-31T09:06:02;98943.44;;;21.52;64.29
26823;BME280;14852;51.910;8.878;2023-07-31T09:08:31;98937.66;;;21.56;64.21
26823;BME280;14852;51.910;8.878;2023-07-31T09:11:02;98941.75;;;21.67;64.36
26823;BME280;14852;51.910;8.878;2023-07-31T09:13:32;98942.50;;;21.84;64.10
26823;BME280;14852;51.910;8.878;2023-07-31T09:15:58;98938.19;;;21.83;64.12
26823;BME280;14852;51.910;8.878;2023-07-31T09:18:24;98934.56;;;21.84;64.42
26823;BME280;14852;51.910;8.878;2023-07-31T09:21:06;98941.81;;;21.90;63.86
26823;BME280;14852;51.910;8.878;2023-07-31T09:23:46;98952.22;;;21.91;64.13
26823;BME280;14852;51.910;8.878;2023-07-31T09:26:34;98953.66;;;22.10;63.82
26823;BME280;14852;51.910;8.878;2023-07-31T09:29:07;98953.03;;;22.31;63.81
26823;BME280;14852;51.910;8.878;2023-07-31T09:31:43;98940.16;;;22.51;63.34
26823;BME280;14852;51.910;8.878;2023-07-31T09:34:10;98946.91;;;22.61;63.10
26823;BME280;14852;51.910;8.878;2023-07-31T09:39:12;98938.31;;;22.82;62.43
26823;BME280;14852;51.910;8.878;2023-07-31T09:42:03;98940.56;;;23.08;62.18
26823;BME280;14852;51.910;8.878;2023-07-31T09:44:38;98938.69;;;23.17;61.60
26823;BME280;14852;51.910;8.878;2023-07-31T09:47:06;98936.75;;;23.25;61.78
26823;BME280;14852;51.910;8.878;2023-07-31T09:49:32;98939.88;;;23.29;61.56
26823;BME280;14852;51.910;8.878;2023-07-31T09:51:58;98939.78;;;23.37;61.38
26823;BME280;14852;51.910;8.878;2023-07-31T09:54:24;98929.66;;;23.40;61.73
26823;BME280;14852;51.910;8.878;2023-07-31T09:56:49;98928.66;;;23.41;61.17
26823;BME280;14852;51.910;8.878;2023-07-31T09:59:18;98929.53;;;23.34;61.34
26823;BME280;14852;51.910;8.878;2023-07-31T10:01:46;98927.81;;;23.26;62.12
26823;BME280;14852;51.910;8.878;2023-07-31T10:04:13;98924.97;;;23.42;62.14
26823;BME280;14852;51.910;8.878;2023-07-31T10:06:41;98933.53;;;23.53;61.33
26823;BME280;14852;51.910;8.878;2023-07-31T10:09:13;98913.31;;;23.52;61.76
26823;BME280;14852;51.910;8.878;2023-07-31T10:11:55;98923.75;;;23.53;61.63
26823;BME280;14852;51.910;8.878;2023-07-31T10:14:21;98925.63;;;23.44;61.37
26823;BME280;14852;51.910;8.878;2023-07-31T10:16:49;98913.75;;;23.55;61.01
26823;BME280;14852;51.910;8.878;2023-07-31T10:19:17;98911.84;;;23.64;61.59
26823;BME280;14852;51.910;8.878;2023-07-31T10:21:44;98913.03;;;23.76;60.81
26823;BME280;14852;51.910;8.878;2023-07-31T10:24:11;98904.69;;;23.79;60.51
26823;BME280;14852;51.910;8.878;2023-07-31T10:26:38;98904.31;;;23.97;60.58
26823;BME280;14852;51.910;8.878;2023-07-31T10:29:06;98904.13;;;23.98;60.43
26823;BME280;14852;51.910;8.878;2023-07-31T10:31:33;98906.88;;;23.90;60.33
26823;BME280;14852;51.910;8.878;2023-07-31T10:34:00;98901.56;;;23.90;61.04
26823;BME280;14852;51.910;8.878;2023-07-31T10:36:26;98908.44;;;23.85;60.61
26823;BME280;14852;51.910;8.878;2023-07-31T10:38:52;98912.94;;;23.69;61.19
26823;BME280;14852;51.910;8.878;2023-07-31T10:41:30;98903.63;;;23.59;60.97
26823;BME280;14852;51.910;8.878;2023-07-31T10:44:02;98897.38;;;23.66;61.42
26823;BME280;14852;51.910;8.878;2023-07-31T10:46:28;98898.50;;;23.72;61.24
26823;BME280;14852;51.910;8.878;2023-07-31T10:49:02;98895.72;;;23.80;60.70
26823;BME280;14852;51.910;8.878;2023-07-31T10:51:35;98901.03;;;23.80;61.15
26823;BME280;14852;51.910;8.878;2023-07-31T10:54:16;98895.28;;;23.76;61.10
26823;BME280;14852;51.910;8.878;2023-07-31T10:56:47;98895.19;;;23.70;60.89
26823;BME280;14852;51.910;8.878;2023-07-31T10:59:15;98897.38;;;23.66;61.30
26823;BME280;14852;51.910;8.878;2023-07-31T11:01:56;98890.53;;;23.72;61.35
26823;BME280;14852;51.910;8.878;2023-07-31T11:04:29;98887.06;;;23.71;61.38
26823;BME280;14852;51.910;8.878;2023-07-31T11:07:01;98891.81;;;23.76;61.28
26823;BME280;14852;51.910;8.878;2023-07-31T11:09:30;98897.94;;;23.76;61.61
26823;BME280;14852;51.910;8.878;2023-07-31T11:11:57;98889.88;;;23.70;61.17
26823;BME280;14852;51.910;8.878;2023-07-31T11:14:23;98885.59;;;23.69;61.48
26823;BME280;14852;51.910;8.878;2023-07-31T11:16:52;98894.72;;;23.66;61.24
26823;BME280;14852;51.910;8.878;2023-07-31T11:19:25;98895.72;;;23.65;61.51
26823;BME280;14852;51.910;8.878;2023-07-31T11:21:54;98888.69;;;23.72;60.69
26823;BME280;14852;51.910;8.878;2023-07-31T11:24:20;98890.53;;;23.72;60.57
26823;BME280;14852;51.910;8.878;2023-07-31T11:26:53;98891.66;;;23.63;60.65
26823;BME280;14852;51.910;8.878;2023-07-31T11:29:19;98892.47;;;23.63;61.04
26823;BME280;14852;51.910;8.878;2023-07-31T11:31:47;98898.50;;;23.57;61.30
26823;BME280;14852;51.910;8.878;2023-07-31T11:34:14;98885.31;;;23.49;60.62
26823;BME280;14852;51.910;8.878;2023-07-31T11:36:40;98889.59;;;23.35;60.81
26823;BME280;14852;51.910;8.878;2023-07-31T11:39:10;98881.09;;;23.25;61.03
26823;BME280;14852;51.910;8.878;2023-07-31T11:41:40;98885.13;;;23.21;61.51
26823;BME280;14852;51.910;8.878;2023-07-31T11:44:06;98883.56;;;23.12;61.17
26823;BME280;14852;51.910;8.878;2023-07-31T11:46:31;98895.72;;;23.06;61.36
26823;BME280;14852;51.910;8.878;2023-07-31T11:49:01;98881.53;;;22.99;61.07
26823;BME280;14852;51.910;8.878;2023-07-31T11:51:27;98876.69;;;22.88;61.79
26823;BME280;14852;51.910;8.878;2023-07-31T11:53:58;98881.41;;;22.78;61.45
26823;BME280;14852;51.910;8.878;2023-07-31T11:56:25;98878.16;;;22.68;61.87
26823;BME280;14852;51.910;8.878;2023-07-31T11:58:58;98874.69;;;22.67;61.74
26823;BME280;14852;51.910;8.878;2023-07-31T12:01:24;98876.16;;;22.70;61.36
26823;BME280;14852;51.910;8.878;2023-07-31T12:03:52;98870.00;;;22.78;61.08
26823;BME280;14852;51.910;8.878;2023-07-31T12:06:18;98871.03;;;22.91;60.95
26823;BME280;14852;51.910;8.878;2023-07-31T12:08:46;98868.41;;;23.06;61.11
26823;BME280;14852;51.910;8.878;2023-07-31T12:11:12;98864.66;;;23.15;60.57
26823;BME280;14852;51.910;8.878;2023-07-31T12:13:43;98865.56;;;23.22;60.44
26823;BME280;14852;51.910;8.878;2023-07-31T12:16:09;98866.47;;;23.15;60.75
26823;BME280;14852;51.910;8.878;2023-07-31T12:18:37;98858.06;;;23.11;60.59
26823;BME280;14852;51.910;8.878;2023-07-31T12:21:08;98860.06;;;23.09;61.18
26823;BME280;14852;51.910;8.878;2023-07-31T12:23:36;98863.94;;;23.06;61.47
26823;BME280;14852;51.910;8.878;2023-07-31T12:26:14;98861.72;;;23.10;61.29
26823;BME280;14852;51.910;8.878;2023-07-31T12:28:49;98860.44;;;23.06;61.55
26823;BME280;14852;51.910;8.878;2023-07-31T12:31:17;98852.41;;;23.14;61.52
26823;BME280;14852;51.910;8.878;2023-07-31T12:33:44;98858.25;;;23.24;61.48
26823;BME280;14852;51.910;8.878;2023-07-31T12:36:22;98861.72;;;23.25;61.42
26823;BME280;14852;51.910;8.878;2023-07-31T12:38:49;98859.63;;;23.05;61.32
26823;BME280;14852;51.910;8.878;2023-07-31T12:41:15;98856.22;;;22.82;62.01
26823;BME280;14852;51.910;8.878;2023-07-31T12:43:43;98849.63;;;22.78;61.78
26823;BME280;14852;51.910;8.878;2023-07-31T12:46:10;98840.69;;;22.79;62.03
26823;BME280;14852;51.910;8.878;2023-07-31T12:48:37;98846.81;;;22.80;61.57
26823;BME280;14852;51.910;8.878;2023-07-31T12:51:04;98858.88;;;22.82;61.57
26823;BME280;14852;51.910;8.878;2023-07-31T12:53:30;98850.44;;;22.79;62.05
26823;BME280;14852;51.910;8.878;2023-07-31T12:55:56;98840.84;;;22.78;61.98
26823;BME280;14852;51.910;8.878;2023-07-31T12:58:22;98844.19;;;22.71;61.87
26823;BME280;14852;51.910;8.878;2023-07-31T13:00:48;98849.84;;;22.68;62.41
26823;BME280;14852;51.910;8.878;2023-07-31T13:03:14;98848.38;;;22.66;61.99
26823;BME280;14852;51.910;8.878;2023-07-31T13:05:40;98844.81;;;22.59;62.10
26823;BME280;14852;51.910;8.878;2023-07-31T13:08:06;98860.88;;;22.57;62.56
26823;BME280;14852;51.910;8.878;2023-07-31T13:10:32;98867.88;;;22.50;62.68